createdAt,value
2017-04-14T00:00:22.942Z,993.62
2017-04-14T00:01:22.966Z,993.59
2017-04-14T00:02:22.996Z,993.59
2017-04-14T00:03:23.023Z,993.59
2017-04-14T00:04:23.053Z,993.6
2017-04-14T00:05:23.077Z,993.61
2017-04-14T00:06:23.102Z,993.57
2017-04-14T00:07:23.130Z,993.56
2017-04-14T00:08:23.157Z,993.54
2017-04-14T00:09:23.187Z,993.56
2017-04-14T00:10:23.213Z,993.57
2017-04-14T00:11:23.243Z,993.53
2017-04-14T00:12:23.262Z,993.57
2017-04-14T00:13:23.295Z,993.57
2017-04-14T00:14:23.321Z,993.55
2017-04-14T00:15:23.349Z,993.55
2017-04-14T00:16:23.379Z,993.59
2017-04-14T00:17:23.403Z,993.56
2017-04-14T00:18:23.683Z,993.56
2017-04-14T00:19:23.461Z,993.59
2017-04-14T00:20:23.485Z,993.58
2017-04-14T00:21:23.515Z,993.59
2017-04-14T00:22:23.544Z,993.59
2017-04-14T00:23:23.820Z,993.6
2017-04-14T00:24:23.597Z,993.56
2017-04-14T00:25:23.622Z,993.6
2017-04-14T00:26:23.649Z,993.6
2017-04-14T00:27:23.675Z,993.57
2017-04-14T00:28:23.954Z,993.57
2017-04-14T00:29:23.733Z,993.6
2017-04-14T00:30:23.757Z,993.57
2017-04-14T00:31:23.785Z,993.54
2017-04-14T00:32:23.811Z,993.54
2017-04-14T00:33:24.091Z,993.55
2017-04-14T00:34:23.869Z,993.61
2017-04-14T00:35:23.897Z,993.59
2017-04-14T00:36:23.922Z,993.58
2017-04-14T00:37:23.951Z,993.59
2017-04-14T00:38:24.232Z,993.6
2017-04-14T00:39:24.004Z,993.57
2017-04-14T00:40:24.033Z,993.6
2017-04-14T00:41:24.054Z,993.6
2017-04-14T00:42:24.079Z,993.59
2017-04-14T00:43:24.116Z,993.61
2017-04-14T00:44:24.140Z,993.6
2017-04-14T00:45:24.169Z,993.57
2017-04-14T00:46:24.193Z,993.58
2017-04-14T00:47:24.267Z,993.57
2017-04-14T00:48:24.250Z,993.56
2017-04-14T00:49:24.276Z,993.55
2017-04-14T00:50:24.305Z,993.57
2017-04-14T00:51:24.332Z,993.57
2017-04-14T00:52:24.358Z,993.53
2017-04-14T00:53:24.387Z,993.55
2017-04-14T00:54:24.412Z,993.5
2017-04-14T00:55:24.440Z,993.51
2017-04-14T00:56:24.470Z,993.54
2017-04-14T00:57:24.494Z,993.5
2017-04-14T00:58:24.523Z,993.53
2017-04-14T00:59:24.547Z,993.49
2017-04-14T01:00:24.577Z,993.46
2017-04-14T01:01:24.603Z,993.49
2017-04-14T01:02:24.630Z,993.49
2017-04-14T01:03:24.659Z,993.47
2017-04-14T01:04:24.688Z,993.49
2017-04-14T01:05:24.713Z,993.49
2017-04-14T01:06:24.742Z,993.49
2017-04-14T01:07:24.770Z,993.47
2017-04-14T01:08:24.795Z,993.47
2017-04-14T01:09:24.824Z,993.5
2017-04-14T01:10:24.847Z,993.45
2017-04-14T01:11:24.879Z,993.46
2017-04-14T01:12:24.905Z,993.42
2017-04-14T01:13:24.924Z,993.44
2017-04-14T01:14:24.960Z,993.47
2017-04-14T01:15:24.982Z,993.46
2017-04-14T01:16:25.013Z,993.44
2017-04-14T01:17:25.040Z,993.46
2017-04-14T01:18:25.062Z,993.5
2017-04-14T01:19:25.138Z,993.46
2017-04-14T01:20:25.122Z,993.43
2017-04-14T01:21:25.143Z,993.44
2017-04-14T01:22:25.178Z,993.46
2017-04-14T01:23:25.201Z,993.45
2017-04-14T01:24:25.230Z,993.43
2017-04-14T01:25:25.259Z,993.41
2017-04-14T01:26:25.279Z,993.44
2017-04-14T01:27:25.313Z,993.41
2017-04-14T01:28:25.333Z,993.47
2017-04-14T01:29:25.366Z,993.48
2017-04-14T01:30:25.394Z,993.43
2017-04-14T01:31:25.416Z,993.46
2017-04-14T01:32:25.448Z,993.46
2017-04-14T01:33:25.477Z,993.49
2017-04-14T01:34:25.502Z,993.47
2017-04-14T01:35:25.532Z,993.5
2017-04-14T01:36:25.556Z,993.51
2017-04-14T01:37:25.583Z,993.5
2017-04-14T01:38:25.608Z,993.53
2017-04-14T01:39:25.638Z,993.51
2017-04-14T01:40:25.666Z,993.55
2017-04-14T01:41:25.691Z,993.49
2017-04-14T01:42:25.721Z,993.47
2017-04-14T01:43:25.745Z,993.49
2017-04-14T01:44:25.773Z,993.49
2017-04-14T01:45:25.802Z,993.52
2017-04-14T01:46:25.831Z,993.55
2017-04-14T01:47:25.853Z,993.54
2017-04-14T01:48:25.884Z,993.54
2017-04-14T01:49:25.909Z,993.57
2017-04-14T01:50:25.933Z,993.5
2017-04-14T01:51:25.962Z,993.51
2017-04-14T01:52:25.991Z,993.53
2017-04-14T01:53:26.020Z,993.46
2017-04-14T01:54:26.044Z,993.48
2017-04-14T01:55:26.072Z,993.53
2017-04-14T01:56:26.102Z,993.5
2017-04-14T01:57:26.127Z,993.52
2017-04-14T01:58:26.158Z,993.53
2017-04-14T01:59:26.180Z,993.53
2017-04-14T02:00:26.208Z,993.51
2017-04-14T02:01:26.237Z,993.54
2017-04-14T02:02:26.262Z,993.52
2017-04-14T02:03:26.291Z,993.48
2017-04-14T02:04:26.313Z,993.45
2017-04-14T02:05:26.345Z,993.42
2017-04-14T02:06:26.365Z,993.46
2017-04-14T02:07:26.395Z,993.45
2017-04-14T02:08:26.427Z,993.46
2017-04-14T02:09:26.447Z,993.5
2017-04-14T02:10:26.481Z,993.52
2017-04-14T02:11:26.510Z,993.48
2017-04-14T02:12:26.534Z,993.51
2017-04-14T02:13:26.563Z,993.48
2017-04-14T02:14:26.839Z,993.51
2017-04-14T02:15:26.616Z,993.43
2017-04-14T02:16:26.644Z,993.44
2017-04-14T02:17:26.670Z,993.42
2017-04-14T02:18:26.694Z,993.41
2017-04-14T02:19:26.974Z,993.45
2017-04-14T02:20:26.751Z,993.44
2017-04-14T02:21:26.778Z,993.41
2017-04-14T02:22:26.806Z,993.42
2017-04-14T02:23:26.833Z,993.42
2017-04-14T02:24:27.109Z,993.39
2017-04-14T02:25:26.888Z,993.43
2017-04-14T02:26:26.911Z,993.46
2017-04-14T02:27:26.942Z,993.46
2017-04-14T02:28:26.969Z,993.45
2017-04-14T02:29:27.247Z,993.46
2017-04-14T02:30:27.024Z,993.46
2017-04-14T02:31:27.053Z,993.44
2017-04-14T02:32:27.077Z,993.45
2017-04-14T02:33:27.107Z,993.44
2017-04-14T02:34:27.128Z,993.48
2017-04-14T02:35:27.155Z,993.42
2017-04-14T02:36:27.184Z,993.42
2017-04-14T02:37:27.209Z,993.43
2017-04-14T02:38:27.238Z,993.45
2017-04-14T02:39:27.267Z,993.43
2017-04-14T02:40:27.295Z,993.44
2017-04-14T02:41:27.321Z,993.44
2017-04-14T02:42:27.349Z,993.42
2017-04-14T02:43:27.374Z,993.43
2017-04-14T02:44:27.403Z,993.44
2017-04-14T02:45:27.432Z,993.4
2017-04-14T02:46:27.456Z,993.37
2017-04-14T02:47:27.484Z,993.36
2017-04-14T02:48:27.509Z,993.35
2017-04-14T02:49:27.538Z,993.38
2017-04-14T02:50:27.562Z,993.37
2017-04-14T02:51:27.591Z,993.38
2017-04-14T02:52:27.619Z,993.42
2017-04-14T02:53:27.646Z,993.41
2017-04-14T02:54:27.673Z,993.39
2017-04-14T02:55:27.694Z,993.41
2017-04-14T02:56:27.727Z,993.41
2017-04-14T02:57:27.751Z,993.41
2017-04-14T02:58:27.780Z,993.42
2017-04-14T02:59:27.808Z,993.42
2017-04-14T03:00:27.834Z,993.37
2017-04-14T03:01:27.864Z,993.38
2017-04-14T03:02:27.888Z,993.37
2017-04-14T03:03:27.917Z,993.43
2017-04-14T03:04:27.945Z,993.42
2017-04-14T03:05:27.970Z,993.41
2017-04-14T03:06:27.999Z,993.42
2017-04-14T03:07:28.027Z,993.38
2017-04-14T03:08:28.053Z,993.38
2017-04-14T03:09:28.081Z,993.4
2017-04-14T03:10:28.106Z,993.37
2017-04-14T03:11:28.130Z,993.36
2017-04-14T03:12:28.159Z,993.34
2017-04-14T03:13:28.188Z,993.34
2017-04-14T03:14:28.218Z,993.34
2017-04-14T03:15:28.242Z,993.32
2017-04-14T03:16:28.271Z,993.31
2017-04-14T03:17:28.295Z,993.35
2017-04-14T03:18:28.324Z,993.33
2017-04-14T03:19:28.349Z,993.38
2017-04-14T03:20:28.379Z,993.36
2017-04-14T03:21:28.407Z,993.36
2017-04-14T03:22:28.430Z,993.37
2017-04-14T03:23:28.460Z,993.38
2017-04-14T03:24:28.484Z,993.34
2017-04-14T03:25:28.513Z,993.34
2017-04-14T03:26:28.538Z,993.33
2017-04-14T03:27:28.566Z,993.35
2017-04-14T03:28:28.596Z,993.33
2017-04-14T03:29:28.620Z,993.34
2017-04-14T03:30:28.649Z,993.34
2017-04-14T03:31:28.670Z,993.33
2017-04-14T03:32:28.700Z,993.31
2017-04-14T03:33:28.731Z,993.29
2017-04-14T03:34:28.756Z,993.32
2017-04-14T03:35:28.787Z,993.3
2017-04-14T03:36:28.810Z,993.37
2017-04-14T03:37:28.839Z,993.32
2017-04-14T03:38:28.858Z,993.33
2017-04-14T03:39:28.887Z,993.28
2017-04-14T03:40:28.920Z,993.27
2017-04-14T03:41:28.945Z,993.32
2017-04-14T03:42:28.974Z,993.34
2017-04-14T03:43:28.998Z,993.36
2017-04-14T03:44:29.028Z,993.37
2017-04-14T03:45:29.051Z,993.36
2017-04-14T03:46:29.081Z,993.38
2017-04-14T03:47:29.109Z,993.33
2017-04-14T03:48:29.134Z,993.33
2017-04-14T03:49:29.162Z,993.36
2017-04-14T03:50:29.190Z,993.35
2017-04-14T03:51:29.217Z,993.38
2017-04-14T03:52:29.238Z,993.36
2017-04-14T03:53:29.271Z,993.35
2017-04-14T03:54:29.299Z,993.36
2017-04-14T03:55:29.324Z,993.39
2017-04-14T03:56:29.353Z,993.33
2017-04-14T03:57:29.373Z,993.36
2017-04-14T03:58:29.406Z,993.34
2017-04-14T03:59:29.431Z,993.34
2017-04-14T04:00:29.460Z,993.38
2017-04-14T04:01:29.488Z,993.35
2017-04-14T04:02:29.513Z,993.36
2017-04-14T04:03:29.541Z,993.33
2017-04-14T04:04:29.567Z,993.36
2017-04-14T04:05:29.596Z,993.29
2017-04-14T04:06:29.620Z,993.32
2017-04-14T04:07:29.646Z,993.31
2017-04-14T04:08:29.675Z,993.33
2017-04-14T04:09:29.702Z,993.29
2017-04-14T04:10:29.727Z,993.34
2017-04-14T04:11:29.756Z,993.33
2017-04-14T04:12:29.781Z,993.32
2017-04-14T04:13:29.809Z,993.31
2017-04-14T04:14:29.838Z,993.32
2017-04-14T04:15:29.863Z,993.36
2017-04-14T04:16:29.892Z,993.36
2017-04-14T04:17:29.916Z,993.3
2017-04-14T04:18:29.946Z,993.35
2017-04-14T04:19:29.969Z,993.35
2017-04-14T04:20:29.999Z,993.38
2017-04-14T04:21:30.026Z,993.41
2017-04-14T04:22:30.052Z,993.39
2017-04-14T04:23:30.080Z,993.41
2017-04-14T04:24:30.106Z,993.4
2017-04-14T04:25:30.134Z,993.4
2017-04-14T04:26:30.159Z,993.42
2017-04-14T04:27:30.189Z,993.38
2017-04-14T04:28:30.216Z,993.4
2017-04-14T04:29:30.242Z,993.44
2017-04-14T04:30:30.271Z,993.44
2017-04-14T04:31:30.296Z,993.46
2017-04-14T04:32:30.323Z,993.43
2017-04-14T04:33:30.349Z,993.45
2017-04-14T04:34:30.378Z,993.42
2017-04-14T04:35:30.658Z,993.45
2017-04-14T04:36:30.431Z,993.43
2017-04-14T04:37:30.460Z,993.45
2017-04-14T04:38:30.484Z,993.46
2017-04-14T04:39:30.519Z,993.52
2017-04-14T04:40:30.789Z,993.52
2017-04-14T04:41:30.567Z,993.54
2017-04-14T04:42:30.596Z,993.53
2017-04-14T04:43:30.620Z,993.57
2017-04-14T04:44:30.649Z,993.61
2017-04-14T04:45:30.925Z,993.58
2017-04-14T04:46:30.704Z,993.59
2017-04-14T04:47:30.728Z,993.59
2017-04-14T04:48:30.756Z,993.57
2017-04-14T04:49:30.781Z,993.61
2017-04-14T04:50:31.060Z,993.56
2017-04-14T04:51:30.835Z,993.58
2017-04-14T04:52:30.863Z,993.58
2017-04-14T04:53:30.892Z,993.6
2017-04-14T04:54:30.916Z,993.63
2017-04-14T04:55:31.196Z,993.62
2017-04-14T04:56:30.972Z,993.68
2017-04-14T04:57:30.999Z,993.65
2017-04-14T04:58:31.023Z,993.66
2017-04-14T04:59:31.052Z,993.69
2017-04-14T05:00:31.332Z,993.73
2017-04-14T05:01:31.108Z,993.72
2017-04-14T05:02:31.136Z,993.71
2017-04-14T05:03:31.160Z,993.73
2017-04-14T05:04:31.184Z,993.68
2017-04-14T05:05:31.213Z,993.73
2017-04-14T05:06:31.243Z,993.75
2017-04-14T05:07:31.266Z,993.72
2017-04-14T05:08:31.294Z,993.74
2017-04-14T05:09:31.325Z,993.75
2017-04-14T05:10:31.349Z,993.74
2017-04-14T05:11:31.377Z,993.76
2017-04-14T05:12:31.402Z,993.77
2017-04-14T05:13:31.429Z,993.76
2017-04-14T05:14:31.459Z,993.78
2017-04-14T05:15:31.484Z,993.77
2017-04-14T05:16:31.512Z,993.77
2017-04-14T05:17:31.538Z,993.77
2017-04-14T05:18:31.568Z,993.77
2017-04-14T05:19:31.591Z,993.78
2017-04-14T05:20:31.620Z,993.79
2017-04-14T05:21:31.649Z,993.81
2017-04-14T05:22:31.675Z,993.8
2017-04-14T05:23:31.700Z,993.85
2017-04-14T05:24:31.727Z,993.88
2017-04-14T05:25:31.756Z,993.86
2017-04-14T05:26:31.785Z,993.85
2017-04-14T05:27:31.811Z,993.84
2017-04-14T05:28:31.840Z,993.86
2017-04-14T05:29:31.865Z,993.86
2017-04-14T05:30:31.888Z,993.87
2017-04-14T05:31:31.921Z,993.86
2017-04-14T05:32:31.945Z,993.89
2017-04-14T05:33:31.974Z,993.91
2017-04-14T05:34:32.000Z,993.91
2017-04-14T05:35:32.033Z,993.94
2017-04-14T05:36:32.057Z,993.94
2017-04-14T05:37:32.078Z,993.95
2017-04-14T05:38:32.110Z,993.96
2017-04-14T05:39:32.140Z,993.94
2017-04-14T05:40:32.159Z,993.91
2017-04-14T05:41:32.192Z,993.98
2017-04-14T05:42:32.218Z,994
2017-04-14T05:43:32.246Z,993.98
2017-04-14T05:44:32.275Z,993.97
2017-04-14T05:45:32.299Z,993.98
2017-04-14T05:46:32.327Z,994
2017-04-14T05:47:32.357Z,993.99
2017-04-14T05:48:32.383Z,994.01
2017-04-14T05:49:32.411Z,994.02
2017-04-14T05:50:32.435Z,994.01
2017-04-14T05:51:32.464Z,994.02
2017-04-14T05:52:32.493Z,994.02
2017-04-14T05:53:32.518Z,994.04
2017-04-14T05:54:32.544Z,994.07
2017-04-14T05:55:32.574Z,994.06
2017-04-14T05:56:32.600Z,994.08
2017-04-14T05:57:32.632Z,994.06
2017-04-14T05:58:32.658Z,994.09
2017-04-14T05:59:32.681Z,994.1
2017-04-14T06:00:32.708Z,994.11
2017-04-14T06:01:32.736Z,994.11
2017-04-14T06:02:32.766Z,994.1
2017-04-14T06:03:32.793Z,994.1
2017-04-14T06:04:32.818Z,994.14
2017-04-14T06:05:32.847Z,994.18
2017-04-14T06:06:32.875Z,994.18
2017-04-14T06:07:32.901Z,994.21
2017-04-14T06:08:32.930Z,994.18
2017-04-14T06:09:32.958Z,994.19
2017-04-14T06:10:32.984Z,994.2
2017-04-14T06:11:33.263Z,994.2
2017-04-14T06:12:33.042Z,994.15
2017-04-14T06:13:33.064Z,994.15
2017-04-14T06:14:33.094Z,994.16
2017-04-14T06:15:33.121Z,994.17
2017-04-14T06:16:33.402Z,994.22
2017-04-14T06:17:33.177Z,994.22
2017-04-14T06:18:33.205Z,994.21
2017-04-14T06:19:33.235Z,994.22
2017-04-14T06:20:33.258Z,994.23
2017-04-14T06:21:33.286Z,994.21
2017-04-14T06:22:33.317Z,994.23
2017-04-14T06:23:33.340Z,994.25
2017-04-14T06:24:33.369Z,994.26
2017-04-14T06:25:33.395Z,994.27
2017-04-14T06:26:33.423Z,994.28
2017-04-14T06:27:33.452Z,994.28
2017-04-14T06:28:33.480Z,994.29
2017-04-14T06:29:33.504Z,994.31
2017-04-14T06:30:33.534Z,994.29
2017-04-14T06:31:33.563Z,994.3
2017-04-14T06:32:33.594Z,994.26
2017-04-14T06:33:33.621Z,994.27
2017-04-14T06:34:33.646Z,994.23
2017-04-14T06:35:33.674Z,994.25
2017-04-14T06:36:33.702Z,994.19
2017-04-14T06:37:33.727Z,994.23
2017-04-14T06:38:33.757Z,994.22
2017-04-14T06:39:33.781Z,994.24
2017-04-14T06:40:33.810Z,994.25
2017-04-14T06:41:33.839Z,994.29
2017-04-14T06:42:33.863Z,994.29
2017-04-14T06:43:33.892Z,994.32
2017-04-14T06:44:33.921Z,994.33
2017-04-14T06:45:33.945Z,994.31
2017-04-14T06:46:33.974Z,994.37
2017-04-14T06:47:34.000Z,994.35
2017-04-14T06:48:34.033Z,994.41
2017-04-14T06:49:34.052Z,994.34
2017-04-14T06:50:34.081Z,994.36
2017-04-14T06:51:34.144Z,994.35
2017-04-14T06:52:34.147Z,994.32
2017-04-14T06:53:34.167Z,994.29
2017-04-14T06:54:34.197Z,994.29
2017-04-14T06:55:34.226Z,994.28
2017-04-14T06:56:34.250Z,994.26
2017-04-14T06:57:34.275Z,994.28
2017-04-14T06:58:34.309Z,994.3
2017-04-14T06:59:34.337Z,994.28
2017-04-14T07:00:34.359Z,994.22
2017-04-14T07:01:34.388Z,994.17
2017-04-14T07:02:34.415Z,994.18
2017-04-14T07:03:34.444Z,994.17
2017-04-14T07:04:34.472Z,994.12
2017-04-14T07:05:34.502Z,994.13
2017-04-14T07:06:34.526Z,994.1
2017-04-14T07:07:34.554Z,994.11
2017-04-14T07:08:34.583Z,994.11
2017-04-14T07:09:34.613Z,994.13
2017-04-14T07:10:34.637Z,994.11
2017-04-14T07:11:34.665Z,994.1
2017-04-14T07:12:34.692Z,994.1
2017-04-14T07:13:34.724Z,994.14
2017-04-14T07:14:34.747Z,994.17
2017-04-14T07:15:34.776Z,994.17
2017-04-14T07:16:34.804Z,994.16
2017-04-14T07:17:34.833Z,994.19
2017-04-14T07:18:34.858Z,994.18
2017-04-14T07:19:34.885Z,994.18
2017-04-14T07:20:34.916Z,994.21
2017-04-14T07:21:34.940Z,994.24
2017-04-14T07:22:34.970Z,994.21
2017-04-14T07:23:34.999Z,994.24
2017-04-14T07:24:35.027Z,994.23
2017-04-14T07:25:35.051Z,994.24
2017-04-14T07:26:35.080Z,994.26
2017-04-14T07:27:35.108Z,994.24
2017-04-14T07:28:35.138Z,994.28
2017-04-14T07:29:35.162Z,994.24
2017-04-14T07:30:35.191Z,994.21
2017-04-14T07:31:35.216Z,994.23
2017-04-14T07:32:35.248Z,994.22
2017-04-14T07:33:35.274Z,994.23
2017-04-14T07:34:35.303Z,994.23
2017-04-14T07:35:35.331Z,994.26
2017-04-14T07:36:35.360Z,994.23
2017-04-14T07:37:35.384Z,994.25
2017-04-14T07:38:35.413Z,994.22
2017-04-14T07:39:35.442Z,994.25
2017-04-14T07:40:35.468Z,994.25
2017-04-14T07:41:35.496Z,994.24
2017-04-14T07:42:35.525Z,994.24
2017-04-14T07:43:35.554Z,994.26
2017-04-14T07:44:35.581Z,994.28
2017-04-14T07:45:35.607Z,994.28
2017-04-14T07:46:35.636Z,994.27
2017-04-14T07:47:35.665Z,994.3
2017-04-14T07:48:35.694Z,994.28
2017-04-14T07:49:35.718Z,994.26
2017-04-14T07:50:35.746Z,994.3
2017-04-14T07:51:35.776Z,994.27
2017-04-14T07:52:36.052Z,994.28
2017-04-14T07:53:35.826Z,994.28
2017-04-14T07:54:35.857Z,994.3
2017-04-14T07:55:35.887Z,994.28
2017-04-14T07:56:35.911Z,994.27
2017-04-14T07:57:36.192Z,994.29
2017-04-14T07:58:35.970Z,994.27
2017-04-14T07:59:35.997Z,994.28
2017-04-14T08:00:36.022Z,994.4
2017-04-14T08:01:36.051Z,994.25
2017-04-14T08:02:36.332Z,994.25
2017-04-14T08:03:36.108Z,994.33
2017-04-14T08:04:36.135Z,994.24
2017-04-14T08:05:36.163Z,994.32
2017-04-14T08:06:36.192Z,994.32
2017-04-14T08:07:36.468Z,994.3
2017-04-14T08:08:36.245Z,994.28
2017-04-14T08:09:36.277Z,994.27
2017-04-14T08:10:36.299Z,994.31
2017-04-14T08:11:36.330Z,994.33
2017-04-14T08:12:36.359Z,994.29
2017-04-14T08:13:36.389Z,994.33
2017-04-14T08:14:36.417Z,994.29
2017-04-14T08:15:36.438Z,994.32
2017-04-14T08:16:36.471Z,994.29
2017-04-14T08:17:36.499Z,994.33
2017-04-14T08:18:36.529Z,994.27
2017-04-14T08:19:36.552Z,994.23
2017-04-14T08:20:36.582Z,994.28
2017-04-14T08:21:36.610Z,994.34
2017-04-14T08:22:36.640Z,994.32
2017-04-14T08:23:36.668Z,994.31
2017-04-14T08:24:36.693Z,994.35
2017-04-14T08:25:36.722Z,994.33
2017-04-14T08:26:36.751Z,994.31
2017-04-14T08:27:36.780Z,994.34
2017-04-14T08:28:36.808Z,994.38
2017-04-14T08:29:36.834Z,994.38
2017-04-14T08:30:36.858Z,994.35
2017-04-14T08:31:36.886Z,994.36
2017-04-14T08:32:36.918Z,994.38
2017-04-14T08:33:36.949Z,994.39
2017-04-14T08:34:36.973Z,994.41
2017-04-14T08:35:36.997Z,994.39
2017-04-14T08:36:37.034Z,994.41
2017-04-14T08:37:37.060Z,994.42
2017-04-14T08:38:37.088Z,994.4
2017-04-14T08:39:37.117Z,994.4
2017-04-14T08:40:37.141Z,994.37
2017-04-14T08:41:37.170Z,994.31
2017-04-14T08:42:37.199Z,994.34
2017-04-14T08:43:37.227Z,994.38
2017-04-14T08:44:37.256Z,994.39
2017-04-14T08:45:37.281Z,994.42
2017-04-14T08:46:37.309Z,994.38
2017-04-14T08:47:37.339Z,994.41
2017-04-14T08:48:37.369Z,994.41
2017-04-14T08:49:37.395Z,994.41
2017-04-14T08:50:37.424Z,994.39
2017-04-14T08:51:37.449Z,994.44
2017-04-14T08:52:37.479Z,994.45
2017-04-14T08:53:37.506Z,994.4
2017-04-14T08:54:37.537Z,994.45
2017-04-14T08:55:37.564Z,994.43
2017-04-14T08:56:37.591Z,994.42
2017-04-14T08:57:37.618Z,994.4
2017-04-14T08:58:37.647Z,994.46
2017-04-14T08:59:37.675Z,994.44
2017-04-14T09:00:37.745Z,994.47
2017-04-14T09:01:37.733Z,994.47
2017-04-14T09:02:37.762Z,994.51
2017-04-14T09:03:37.787Z,994.52
2017-04-14T09:04:37.815Z,994.5
2017-04-14T09:05:37.844Z,994.51
2017-04-14T09:06:37.873Z,994.5
2017-04-14T09:07:37.896Z,994.49
2017-04-14T09:08:37.924Z,994.48
2017-04-14T09:09:37.950Z,994.48
2017-04-14T09:10:37.980Z,994.46
2017-04-14T09:11:38.008Z,994.48
2017-04-14T09:12:38.042Z,994.49
2017-04-14T09:13:38.321Z,994.49
2017-04-14T09:14:38.090Z,994.5
2017-04-14T09:15:38.124Z,994.51
2017-04-14T09:16:38.153Z,994.45
2017-04-14T09:17:38.184Z,994.46
2017-04-14T09:18:38.461Z,994.46
2017-04-14T09:19:38.237Z,994.45
2017-04-14T09:20:38.263Z,994.44
2017-04-14T09:21:38.291Z,994.46
2017-04-14T09:22:38.321Z,994.42
2017-04-14T09:23:38.349Z,994.46
2017-04-14T09:24:38.377Z,994.46
2017-04-14T09:25:38.406Z,994.52
2017-04-14T09:26:38.435Z,994.52
2017-04-14T09:27:38.465Z,994.48
2017-04-14T09:28:38.485Z,994.5
2017-04-14T09:29:38.518Z,994.49
2017-04-14T09:30:38.545Z,994.5
2017-04-14T09:31:38.571Z,994.45
2017-04-14T09:32:38.604Z,994.45
2017-04-14T09:33:38.633Z,994.41
2017-04-14T09:34:38.661Z,994.38
2017-04-14T09:35:38.687Z,994.4
2017-04-14T09:36:38.715Z,994.35
2017-04-14T09:37:38.745Z,994.4
2017-04-14T09:38:38.773Z,994.48
2017-04-14T09:39:38.801Z,994.46
2017-04-14T09:40:38.830Z,994.43
2017-04-14T09:41:38.858Z,994.4
2017-04-14T09:42:38.884Z,994.44
2017-04-14T09:43:38.910Z,994.42
2017-04-14T09:44:38.941Z,994.39
2017-04-14T09:45:38.970Z,994.45
2017-04-14T09:46:38.992Z,994.43
2017-04-14T09:47:39.027Z,994.44
2017-04-14T09:48:39.057Z,994.37
2017-04-14T09:49:39.080Z,994.41
2017-04-14T09:50:39.110Z,994.42
2017-04-14T09:51:39.138Z,994.43
2017-04-14T09:52:39.167Z,994.45
2017-04-14T09:53:39.193Z,994.4
2017-04-14T09:54:39.225Z,994.37
2017-04-14T09:55:39.253Z,994.38
2017-04-14T09:56:39.277Z,994.37
2017-04-14T09:57:39.308Z,994.36
2017-04-14T09:58:39.333Z,994.34
2017-04-14T09:59:39.365Z,994.35
2017-04-14T10:00:39.394Z,994.37
2017-04-14T10:01:39.420Z,994.42
2017-04-14T10:02:39.450Z,994.37
2017-04-14T10:03:39.479Z,994.38
2017-04-14T10:04:39.503Z,994.36
2017-04-14T10:05:39.534Z,994.33
2017-04-14T10:06:39.562Z,994.32
2017-04-14T10:07:39.592Z,994.38
2017-04-14T10:08:39.620Z,994.39
2017-04-14T10:09:39.647Z,994.36
2017-04-14T10:10:39.681Z,994.28
2017-04-14T10:11:39.701Z,994.27
2017-04-14T10:12:39.730Z,994.3
2017-04-14T10:13:39.758Z,994.33
2017-04-14T10:14:39.788Z,994.26
2017-04-14T10:15:39.816Z,994.24
2017-04-14T10:16:39.845Z,994.23
2017-04-14T10:17:39.870Z,994.24
2017-04-14T10:18:39.898Z,994.24
2017-04-14T10:19:39.929Z,994.25
2017-04-14T10:20:39.957Z,994.27
2017-04-14T10:21:39.984Z,994.32
2017-04-14T10:22:40.010Z,994.27
2017-04-14T10:23:40.043Z,994.32
2017-04-14T10:24:40.070Z,994.35
2017-04-14T10:25:40.096Z,994.26
2017-04-14T10:26:40.123Z,994.25
2017-04-14T10:27:40.155Z,994.33
2017-04-14T10:28:40.182Z,994.34
2017-04-14T10:29:40.211Z,994.26
2017-04-14T10:30:40.254Z,994.29
2017-04-14T10:31:40.269Z,994.26
2017-04-14T10:32:40.298Z,994.21
2017-04-14T10:33:40.323Z,994.3
2017-04-14T10:34:40.350Z,994.25
2017-04-14T10:35:40.380Z,994.24
2017-04-14T10:36:40.409Z,994.25
2017-04-14T10:37:40.437Z,994.22
2017-04-14T10:38:40.468Z,994.25
2017-04-14T10:39:40.495Z,994.2
2017-04-14T10:40:40.523Z,994.17
2017-04-14T10:41:40.553Z,994.14
2017-04-14T10:42:40.577Z,994.12
2017-04-14T10:43:40.605Z,994.17
2017-04-14T10:44:40.634Z,994.17
2017-04-14T10:45:40.663Z,994.21
2017-04-14T10:46:40.692Z,994.17
2017-04-14T10:47:40.721Z,994.21
2017-04-14T10:48:40.750Z,994.14
2017-04-14T10:49:40.774Z,994.2
2017-04-14T10:50:40.803Z,994.18
2017-04-14T10:51:40.831Z,994.2
2017-04-14T10:52:40.861Z,994.24
2017-04-14T10:53:40.889Z,994.25
2017-04-14T10:54:41.167Z,994.28
2017-04-14T10:55:40.947Z,994.24
2017-04-14T10:56:40.976Z,994.13
2017-04-14T10:57:41.005Z,994.22
2017-04-14T10:58:41.033Z,994.15
2017-04-14T10:59:41.311Z,994.25
2017-04-14T11:00:41.090Z,994.29
2017-04-14T11:01:41.121Z,994.26
2017-04-14T11:02:41.149Z,994.27
2017-04-14T11:03:41.173Z,994.25
2017-04-14T11:04:41.453Z,994.2
2017-04-14T11:05:41.230Z,994.21
2017-04-14T11:06:41.259Z,994.25
2017-04-14T11:07:41.288Z,994.23
2017-04-14T11:08:41.317Z,994.28
2017-04-14T11:09:41.346Z,994.29
2017-04-14T11:10:41.375Z,994.22
2017-04-14T11:11:41.398Z,994.26
2017-04-14T11:12:41.433Z,994.3
2017-04-14T11:13:41.468Z,994.23
2017-04-14T11:14:41.489Z,994.21
2017-04-14T11:15:41.515Z,994.23
2017-04-14T11:16:41.547Z,994.22
2017-04-14T11:17:41.575Z,994.18
2017-04-14T11:18:41.600Z,994.27
2017-04-14T11:19:41.625Z,994.26
2017-04-14T11:20:41.654Z,994.21
2017-04-14T11:21:41.686Z,994.14
2017-04-14T11:22:41.715Z,994.18
2017-04-14T11:23:41.744Z,994.11
2017-04-14T11:24:41.772Z,994.13
2017-04-14T11:25:41.797Z,994.07
2017-04-14T11:26:41.830Z,994.21
2017-04-14T11:27:41.863Z,994.35
2017-04-14T11:28:41.888Z,994.39
2017-04-14T11:29:41.917Z,994.43
2017-04-14T11:30:41.945Z,994.23
2017-04-14T11:31:41.974Z,994.27
2017-04-14T11:32:42.003Z,994.53
2017-04-14T11:33:42.035Z,994.29
2017-04-14T11:34:42.060Z,994.17
2017-04-14T11:35:42.090Z,994.13
2017-04-14T11:36:42.118Z,994.13
2017-04-14T11:37:42.147Z,994.1
2017-04-14T11:38:42.174Z,994.03
2017-04-14T11:39:42.203Z,994.02
2017-04-14T11:40:42.232Z,994.14
2017-04-14T11:41:42.257Z,994.12
2017-04-14T11:42:42.292Z,994.07
2017-04-14T11:43:42.318Z,994.16
2017-04-14T11:44:42.347Z,994.64
2017-04-14T11:45:42.378Z,994.45
2017-04-14T11:46:42.405Z,994.53
2017-04-14T11:47:42.433Z,994.59
2017-04-14T11:48:42.463Z,994.49
2017-04-14T11:49:42.491Z,994.45
2017-04-14T11:50:42.520Z,994.19
2017-04-14T11:51:42.549Z,994.17
2017-04-14T11:52:42.578Z,994.04
2017-04-14T11:53:42.607Z,994.05
2017-04-14T11:54:42.635Z,994.09
2017-04-14T11:55:42.664Z,994.24
2017-04-14T11:56:42.698Z,994.02
2017-04-14T11:57:42.730Z,994.04
2017-04-14T11:58:42.751Z,994.07
2017-04-14T11:59:42.784Z,994.08
2017-04-14T12:00:42.812Z,994.12
2017-04-14T12:01:42.841Z,994.09
2017-04-14T12:02:42.870Z,994.09
2017-04-14T12:03:42.901Z,994.02
2017-04-14T12:04:42.935Z,994.05
2017-04-14T12:05:42.961Z,994.05
2017-04-14T12:06:42.988Z,994.08
2017-04-14T12:07:43.014Z,994.29
2017-04-14T12:08:43.050Z,994.14
2017-04-14T12:09:43.078Z,994.23
2017-04-14T12:10:43.108Z,994.08
2017-04-14T12:11:43.137Z,994.06
2017-04-14T12:12:43.165Z,994.35
2017-04-14T12:13:43.194Z,994.27
2017-04-14T12:14:43.227Z,994.06
2017-04-14T12:15:43.250Z,994.1
2017-04-14T12:16:43.284Z,994.45
2017-04-14T12:17:43.312Z,994.53
2017-04-14T12:18:43.342Z,994.46
2017-04-14T12:19:43.375Z,994.06
2017-04-14T12:20:43.403Z,994.21
2017-04-14T12:21:43.431Z,994.35
2017-04-14T12:22:43.456Z,994.39
2017-04-14T12:23:43.493Z,994.19
2017-04-14T12:24:43.521Z,994.01
2017-04-14T12:25:43.552Z,993.87
2017-04-14T12:26:43.580Z,993.91
2017-04-14T12:27:43.611Z,993.95
2017-04-14T12:28:43.643Z,993.97
2017-04-14T12:29:43.674Z,994.02
2017-04-14T12:30:43.703Z,993.96